createdAt,value
2023-03-12T00:00:56.350Z,20.73
2023-03-12T00:04:03.252Z,18.00
2023-03-12T00:07:08.930Z,18.67
2023-03-12T00:10:13.391Z,22.90
2023-03-12T00:13:16.717Z,20.80
2023-03-12T00:16:20.340Z,19.40
2023-03-12T00:19:25.047Z,19.42
2023-03-12T00:22:28.398Z,37.17
2023-03-12T00:25:31.827Z,20.58
2023-03-12T00:28:36.068Z,18.95
2023-03-12T00:31:39.396Z,18.05
2023-03-12T00:34:44.357Z,18.10
2023-03-12T00:37:47.603Z,19.73
2023-03-12T00:40:50.915Z,23.38
2023-03-12T00:43:54.290Z,19.05
2023-03-12T00:46:57.694Z,16.95
2023-03-12T00:50:02.354Z,19.15
2023-03-12T00:53:05.731Z,77.90
2023-03-12T00:56:09.558Z,18.48
2023-03-12T00:59:13.280Z,18.38
2023-03-12T01:02:16.690Z,20.00
2023-03-12T01:05:21.562Z,22.92
2023-03-12T01:08:25.280Z,19.63
2023-03-12T01:11:28.570Z,46.10
2023-03-12T01:14:32.714Z,56.67
2023-03-12T01:17:35.913Z,17.13
2023-03-12T01:20:41.343Z,19.67
2023-03-12T01:23:44.633Z,98.30
2023-03-12T01:26:48.656Z,165.50
2023-03-12T01:29:51.966Z,15.10
2023-03-12T01:32:55.579Z,16.83
2023-03-12T01:36:01.388Z,16.05
2023-03-12T01:39:05.067Z,23.77
2023-03-12T01:42:08.745Z,80.35
2023-03-12T01:45:45.388Z,18.08
2023-03-12T01:48:52.386Z,17.08
2023-03-12T01:52:03.440Z,90.32
2023-03-12T01:55:16.531Z,19.88
2023-03-12T01:58:22.303Z,24.02
2023-03-12T02:01:26.887Z,20.38
2023-03-12T02:04:33.116Z,18.23
2023-03-12T02:07:38.653Z,19.05
2023-03-12T02:10:41.828Z,20.45
2023-03-12T02:13:45.809Z,17.83
2023-03-12T02:16:49.766Z,25.48
2023-03-12T02:20:01.579Z,21.05
2023-03-12T02:23:09.979Z,34.10
2023-03-12T02:26:16.016Z,20.05
2023-03-12T02:29:19.808Z,35.97
2023-03-12T02:32:27.233Z,23.98
2023-03-12T02:35:30.910Z,21.60
2023-03-12T02:38:38.705Z,20.25
2023-03-12T02:41:46.135Z,23.27
2023-03-12T02:44:50.447Z,21.35
2023-03-12T02:47:54.654Z,23.92
2023-03-12T02:50:57.947Z,22.90
2023-03-12T02:54:01.451Z,23.65
2023-03-12T02:57:06.138Z,22.65
2023-03-12T03:03:28.249Z,26.17
2023-03-12T03:06:32.508Z,28.27
2023-03-12T03:09:35.727Z,28.20
2023-03-12T03:12:41.289Z,28.10
2023-03-12T03:15:44.853Z,24.27
2023-03-12T03:18:48.510Z,27.38
2023-03-12T03:21:51.853Z,27.30
2023-03-12T03:24:55.951Z,30.35
2023-03-12T03:28:00.551Z,28.80
2023-03-12T03:31:04.425Z,28.98
2023-03-12T03:34:12.494Z,30.92
2023-03-12T03:37:15.823Z,31.77
2023-03-12T03:40:19.680Z,27.58
2023-03-12T03:43:24.706Z,30.75
2023-03-12T03:46:28.326Z,35.58
2023-03-12T03:49:37.091Z,111.43
2023-03-12T03:52:40.412Z,32.60
2023-03-12T03:55:43.702Z,33.08
2023-03-12T03:58:48.526Z,33.78
2023-03-12T04:01:53.698Z,35.88
2023-03-12T04:04:59.366Z,54.00
2023-03-12T04:08:04.306Z,32.63
2023-03-12T04:11:12.978Z,32.08
2023-03-12T04:14:17.555Z,105.45
2023-03-12T04:17:22.242Z,32.05
2023-03-12T04:20:25.430Z,32.13
2023-03-12T04:23:28.846Z,42.10
2023-03-12T04:26:32.854Z,33.50
2023-03-12T04:29:39.225Z,35.58
2023-03-12T04:32:42.702Z,37.85
2023-03-12T04:35:52.793Z,35.05
2023-03-12T04:38:57.600Z,36.83
2023-03-12T04:42:05.729Z,182.00
2023-03-12T04:45:12.610Z,50.35
2023-03-12T04:48:20.471Z,37.63
2023-03-12T04:51:25.047Z,32.60
2023-03-12T04:54:28.568Z,34.92
2023-03-12T04:57:32.159Z,31.27
2023-03-12T05:00:37.163Z,161.82
2023-03-12T05:03:40.534Z,35.35
2023-03-12T05:06:44.077Z,37.15
2023-03-12T05:09:47.729Z,33.55
2023-03-12T05:12:51.284Z,32.65
2023-03-12T05:15:57.357Z,37.67
2023-03-12T05:19:02.263Z,34.95
2023-03-12T05:22:06.636Z,71.45
2023-03-12T05:25:11.667Z,34.28
2023-03-12T05:28:15.012Z,30.25
2023-03-12T05:31:20.563Z,78.57
2023-03-12T05:34:24.820Z,35.53
2023-03-12T05:37:29.110Z,63.90
2023-03-12T05:40:32.471Z,30.23
2023-03-12T05:43:36.424Z,67.70
2023-03-12T05:46:41.632Z,30.40
2023-03-12T05:49:45.150Z,74.38
2023-03-12T05:52:48.592Z,27.20
2023-03-12T05:55:52.262Z,28.80
2023-03-12T05:58:55.945Z,37.75
2023-03-12T06:02:00.728Z,34.67
2023-03-12T06:05:04.505Z,26.60
2023-03-12T06:08:07.857Z,321.08
2023-03-12T06:11:11.353Z,130.15
2023-03-12T06:14:14.813Z,36.72
2023-03-12T06:17:19.798Z,26.90
2023-03-12T06:20:25.028Z,27.38
2023-03-12T06:23:28.364Z,28.42
2023-03-12T06:26:31.576Z,31.50
2023-03-12T06:29:34.776Z,34.83
2023-03-12T06:32:39.398Z,58.70
2023-03-12T06:35:43.146Z,33.40
2023-03-12T06:38:46.545Z,22.13
2023-03-12T06:41:49.808Z,26.85
2023-03-12T06:44:53.545Z,148.75
2023-03-12T06:47:58.347Z,79.60
2023-03-12T06:51:01.869Z,29.90
2023-03-12T06:54:05.766Z,31.10
2023-03-12T06:57:10.369Z,31.60
2023-03-12T07:00:15.047Z,145.80
2023-03-12T07:03:19.816Z,26.75
2023-03-12T07:06:25.008Z,35.95
2023-03-12T07:09:28.417Z,33.95
2023-03-12T07:12:31.558Z,34.28
2023-03-12T07:15:34.920Z,31.45
2023-03-12T07:18:39.532Z,27.30
2023-03-12T07:21:42.781Z,209.02
2023-03-12T07:24:46.170Z,32.60
2023-03-12T07:27:49.661Z,23.73
2023-03-12T07:30:53.038Z,27.67
2023-03-12T07:33:58.140Z,22.73
2023-03-12T07:37:01.778Z,41.25
2023-03-12T07:40:07.369Z,35.90
2023-03-12T07:43:12.815Z,110.55
2023-03-12T07:46:18.581Z,37.50
2023-03-12T07:49:23.404Z,29.88
2023-03-12T07:52:27.252Z,117.78
2023-03-12T07:55:30.862Z,28.88
2023-03-12T07:58:36.486Z,31.08
2023-03-12T08:01:40.193Z,26.25
2023-03-12T08:04:45.498Z,32.50
2023-03-12T08:07:51.412Z,27.65
2023-03-12T08:10:55.028Z,26.70
2023-03-12T08:13:58.369Z,29.40
2023-03-12T08:17:02.356Z,30.50
2023-03-12T08:20:10.291Z,65.47
2023-03-12T08:23:14.126Z,35.00
2023-03-12T08:26:17.575Z,93.35
2023-03-12T08:29:21.677Z,34.58
2023-03-12T08:32:28.946Z,125.72
2023-03-12T08:35:35.822Z,46.22
2023-03-12T08:38:40.438Z,44.00
2023-03-12T08:41:46.288Z,30.50
2023-03-12T08:44:50.763Z,52.17
2023-03-12T08:47:54.809Z,50.75
2023-03-12T08:51:06.378Z,24.98
2023-03-12T08:54:10.451Z,21.42
2023-03-12T08:57:13.900Z,19.35
2023-03-12T09:00:18.205Z,183.30
2023-03-12T09:03:22.632Z,48.22
2023-03-12T09:06:28.915Z,18.80
2023-03-12T09:09:32.853Z,33.95
2023-03-12T09:12:37.874Z,59.10
2023-03-12T09:15:41.165Z,41.25
2023-03-12T09:18:46.934Z,110.93
2023-03-12T09:21:52.937Z,20.00
2023-03-12T09:24:58.246Z,20.73
2023-03-12T09:28:02.702Z,22.35
2023-03-12T09:31:07.091Z,24.40
2023-03-12T09:34:10.519Z,20.45
2023-03-12T09:37:15.831Z,20.15
2023-03-12T09:40:23.124Z,39.20
2023-03-12T09:43:30.380Z,61.33
2023-03-12T09:46:39.585Z,29.55
2023-03-12T09:49:47.082Z,27.33
2023-03-12T09:52:58.107Z,29.75
2023-03-12T09:56:09.279Z,23.70
2023-03-12T09:59:15.736Z,22.63
2023-03-12T10:02:46.112Z,21.05
2023-03-12T10:09:29.128Z,36.20
2023-03-12T10:12:51.416Z,17.10
2023-03-12T10:16:26.279Z,158.52
2023-03-12T10:19:48.291Z,141.43
2023-03-12T10:23:01.652Z,19.08
2023-03-12T10:26:19.110Z,15.77
2023-03-12T10:29:31.415Z,16.02
2023-03-12T10:32:49.333Z,19.42
2023-03-12T10:36:05.314Z,48.35
2023-03-12T10:39:16.587Z,16.17
2023-03-12T10:42:39.786Z,26.92
2023-03-12T10:45:51.485Z,16.70
2023-03-12T10:49:25.929Z,14.57
2023-03-12T10:52:33.363Z,28.77
2023-03-12T10:56:16.189Z,12.10
2023-03-12T10:59:31.011Z,17.40
2023-03-12T11:02:49.690Z,15.85
2023-03-12T11:06:04.306Z,17.50
2023-03-12T11:09:24.184Z,56.80
2023-03-12T11:12:38.005Z,57.53
2023-03-12T11:15:56.330Z,16.10
2023-03-12T11:19:27.675Z,43.53
2023-03-12T11:22:44.142Z,12.68
2023-03-12T11:25:59.853Z,12.55
2023-03-12T11:29:11.797Z,56.00
2023-03-12T11:32:28.858Z,19.52
2023-03-12T11:35:52.415Z,17.38
2023-03-12T11:39:10.077Z,12.25
2023-03-12T11:42:34.114Z,12.38
2023-03-12T11:45:49.552Z,16.33
2023-03-12T11:49:15.675Z,10.00
2023-03-12T11:52:33.808Z,6.90
2023-03-12T11:55:54.552Z,12.57
2023-03-12T11:59:39.991Z,7.57
2023-03-12T12:03:09.333Z,23.77
2023-03-12T12:06:37.738Z,13.73
2023-03-12T12:09:53.116Z,14.20
2023-03-12T12:13:10.073Z,38.95
2023-03-12T12:16:26.467Z,18.13
2023-03-12T12:19:50.476Z,7.38
2023-03-12T12:23:11.798Z,10.73
2023-03-12T12:26:34.148Z,6.68
2023-03-12T12:30:02.009Z,8.52
2023-03-12T12:33:23.825Z,42.05
2023-03-12T12:36:33.859Z,7.20
2023-03-12T12:39:52.380Z,9.95
2023-03-12T12:43:11.385Z,7.47
2023-03-12T12:46:41.535Z,8.52
2023-03-12T12:49:53.125Z,51.03
2023-03-12T12:53:11.220Z,7.65
2023-03-12T12:56:23.605Z,7.10
2023-03-12T12:59:43.713Z,10.50
2023-03-12T13:02:53.048Z,9.25
2023-03-12T13:06:08.985Z,8.98
2023-03-12T13:09:20.522Z,7.80
2023-03-12T13:12:49.498Z,53.20
2023-03-12T13:16:43.365Z,7.25
2023-03-12T13:20:01.472Z,39.90
2023-03-12T13:23:41.971Z,5.88
2023-03-12T13:27:06.879Z,6.00
2023-03-12T13:31:00.654Z,11.45
2023-03-12T13:34:52.447Z,10.30
2023-03-12T13:38:08.463Z,12.83
2023-03-12T13:41:55.383Z,13.05
2023-03-12T13:45:24.065Z,7.50
2023-03-12T13:48:41.194Z,43.28
2023-03-12T13:52:03.611Z,14.18
2023-03-12T13:55:29.125Z,10.82
2023-03-12T13:59:24.403Z,9.85
2023-03-12T14:02:41.439Z,16.00
2023-03-12T14:06:02.474Z,10.82
2023-03-12T14:09:28.212Z,7.95
2023-03-12T14:12:52.250Z,12.55
2023-03-12T14:16:18.626Z,11.73
2023-03-12T14:19:37.699Z,12.30
2023-03-12T14:22:56.804Z,14.25
2023-03-12T14:26:12.760Z,8.30
2023-03-12T14:29:28.928Z,14.90
2023-03-12T14:32:43.947Z,10.93
2023-03-12T14:36:05.890Z,27.63
2023-03-12T14:39:31.671Z,16.23
2023-03-12T14:42:37.667Z,7.25
2023-03-12T14:45:46.254Z,8.60
2023-03-12T14:48:55.293Z,10.38
2023-03-12T14:52:09.198Z,10.32
2023-03-12T14:55:25.981Z,12.27
2023-03-12T14:58:32.080Z,13.25
2023-03-12T15:01:46.594Z,10.07
2023-03-12T15:05:11.653Z,9.80
2023-03-12T15:08:21.116Z,9.73
2023-03-12T15:11:42.863Z,11.55
2023-03-12T15:14:54.936Z,8.95
2023-03-12T15:18:02.497Z,10.20
2023-03-12T15:21:11.503Z,13.70
2023-03-12T15:24:21.610Z,11.15
2023-03-12T15:27:55.532Z,15.07
2023-03-12T15:31:21.874Z,10.88
2023-03-12T15:35:00.449Z,14.85
2023-03-12T15:38:26.392Z,9.98
2023-03-12T15:41:43.028Z,12.52
2023-03-12T15:45:03.478Z,12.05
2023-03-12T15:51:36.793Z,12.38
2023-03-12T15:54:48.582Z,9.18
2023-03-12T15:57:58.014Z,16.95
2023-03-12T16:01:32.162Z,11.88
2023-03-12T16:04:43.434Z,12.48
2023-03-12T16:07:52.842Z,13.32
2023-03-12T16:11:00.993Z,14.93
2023-03-12T16:14:11.241Z,14.98
2023-03-12T16:17:20.946Z,15.90
2023-03-12T16:20:35.979Z,20.10
2023-03-12T16:23:42.091Z,26.00
2023-03-12T16:26:51.883Z,29.85
2023-03-12T16:30:04.724Z,28.52
2023-03-12T16:33:17.212Z,27.67
2023-03-12T16:36:23.842Z,27.75
2023-03-12T16:39:33.333Z,28.85
2023-03-12T16:42:44.700Z,21.30
2023-03-12T16:45:49.642Z,19.35
2023-03-12T16:48:54.984Z,24.63
2023-03-12T16:52:00.843Z,23.88
2023-03-12T16:55:17.445Z,32.00
2023-03-12T16:58:29.338Z,46.67
2023-03-12T17:01:58.605Z,50.88
2023-03-12T17:05:03.718Z,51.60
2023-03-12T17:08:10.431Z,46.70
2023-03-12T17:15:34.238Z,97.32
2023-03-12T17:18:40.410Z,77.57
2023-03-12T17:21:46.564Z,60.70
2023-03-12T17:24:51.509Z,57.88
2023-03-12T17:27:58.200Z,58.72
2023-03-12T17:31:02.099Z,80.07
2023-03-12T17:34:09.214Z,72.53
2023-03-12T17:37:16.499Z,51.88
2023-03-12T17:43:40.266Z,46.22
2023-03-12T17:46:56.498Z,44.40
2023-03-12T17:50:04.249Z,41.97
2023-03-12T17:53:09.849Z,33.20
2023-03-12T17:56:15.837Z,33.15
2023-03-12T17:59:20.115Z,30.70
2023-03-12T18:02:27.272Z,26.92
2023-03-12T18:05:30.652Z,28.67
2023-03-12T18:08:38.316Z,34.63
2023-03-12T18:11:41.954Z,27.15
2023-03-12T18:14:45.281Z,26.55
2023-03-12T18:17:51.950Z,28.75
2023-03-12T18:20:55.636Z,31.35
2023-03-12T18:24:08.249Z,23.63
2023-03-12T18:27:17.109Z,24.40
2023-03-12T18:30:21.181Z,25.75
2023-03-12T18:33:24.836Z,24.15
2023-03-12T18:36:28.562Z,22.60
2023-03-12T18:39:35.807Z,22.75
2023-03-12T18:42:48.667Z,31.63
2023-03-12T18:45:52.070Z,47.78
2023-03-12T18:48:58.042Z,27.52
2023-03-12T18:52:01.800Z,31.60
2023-03-12T18:55:07.502Z,37.33
2023-03-12T18:58:11.343Z,40.25
2023-03-12T19:01:14.860Z,26.77
2023-03-12T19:04:20.134Z,55.58
2023-03-12T19:07:24.162Z,46.33
2023-03-12T19:10:29.814Z,32.17
2023-03-12T19:13:35.364Z,33.72
2023-03-12T19:16:38.829Z,26.55
2023-03-12T19:19:42.424Z,24.17
2023-03-12T19:22:47.111Z,26.25
2023-03-12T19:25:52.024Z,26.80
2023-03-12T19:28:55.357Z,29.17
2023-03-12T19:31:58.776Z,25.38
2023-03-12T19:35:02.464Z,49.88
2023-03-12T19:38:06.307Z,55.17
2023-03-12T19:41:12.708Z,34.20
2023-03-12T19:44:16.033Z,39.90
2023-03-12T19:47:22.037Z,39.42
2023-03-12T19:50:25.497Z,72.85
2023-03-12T19:53:29.243Z,76.00
2023-03-12T19:56:35.212Z,79.03
2023-03-12T19:59:40.245Z,64.07
2023-03-12T20:02:48.833Z,72.47
2023-03-12T20:05:52.417Z,60.75
2023-03-12T20:08:55.999Z,52.85
2023-03-12T20:12:06.747Z,37.15
2023-03-12T20:15:11.329Z,32.75
2023-03-12T20:18:15.286Z,31.60
2023-03-12T20:21:18.877Z,35.45
2023-03-12T20:24:22.511Z,44.50
2023-03-12T20:27:31.150Z,60.67
2023-03-12T20:30:36.649Z,74.45
2023-03-12T20:33:41.984Z,66.50
2023-03-12T20:36:45.323Z,85.55
2023-03-12T20:39:48.741Z,52.85
2023-03-12T20:42:54.733Z,40.38
2023-03-12T20:45:58.081Z,44.20
2023-03-12T20:49:01.451Z,37.47
2023-03-12T20:52:06.346Z,37.20
2023-03-12T20:55:10.939Z,45.63
2023-03-12T20:58:17.941Z,57.25
2023-03-12T21:01:21.716Z,78.85
2023-03-12T21:04:25.336Z,74.43
2023-03-12T21:07:29.011Z,75.18
2023-03-12T21:10:32.288Z,58.22
2023-03-12T21:13:37.952Z,69.38
2023-03-12T21:16:41.445Z,61.15
2023-03-12T21:19:44.813Z,73.78
2023-03-12T21:22:48.274Z,333.45
2023-03-12T21:26:00.331Z,159.40
2023-03-12T21:29:05.111Z,302.83
2023-03-12T21:32:08.473Z,260.77
2023-03-12T21:35:12.402Z,255.75
2023-03-12T21:38:16.134Z,223.05
2023-03-12T21:41:20.823Z,259.73
2023-03-12T21:44:26.078Z,269.75
2023-03-12T21:47:30.622Z,283.90
2023-03-12T21:50:36.044Z,194.35
2023-03-12T21:53:39.709Z,221.80
2023-03-12T21:56:44.451Z,264.33
2023-03-12T21:59:50.099Z,247.80
2023-03-12T22:02:56.476Z,93.35
2023-03-12T22:06:01.939Z,139.40
2023-03-12T22:09:05.598Z,93.47
2023-03-12T22:12:09.091Z,79.55
2023-03-12T22:15:16.136Z,65.20
2023-03-12T22:18:21.172Z,67.47
2023-03-12T22:21:25.700Z,59.65
2023-03-12T22:24:28.975Z,52.40
2023-03-12T22:27:32.197Z,60.15
2023-03-12T22:30:36.923Z,42.67
2023-03-12T22:33:40.256Z,41.58
2023-03-12T22:36:44.076Z,36.17
2023-03-12T22:39:47.472Z,41.17
2023-03-12T22:42:51.305Z,35.40
2023-03-12T22:45:56.218Z,36.00
2023-03-12T22:49:01.127Z,37.28
2023-03-12T22:52:04.660Z,42.90
2023-03-12T22:55:09.021Z,43.85
2023-03-12T22:58:12.221Z,39.67
2023-03-12T23:01:19.195Z,37.08
2023-03-12T23:04:22.792Z,38.63
2023-03-12T23:07:26.224Z,34.40
2023-03-12T23:10:30.195Z,40.33
2023-03-12T23:13:36.850Z,35.70
2023-03-12T23:16:41.570Z,36.05
2023-03-12T23:19:44.984Z,41.25
2023-03-12T23:22:48.240Z,41.13
2023-03-12T23:25:54.095Z,43.28
2023-03-12T23:28:59.610Z,37.80
2023-03-12T23:32:04.385Z,40.85
2023-03-12T23:35:08.249Z,41.53
2023-03-12T23:38:11.780Z,39.03
2023-03-12T23:41:17.073Z,35.08
2023-03-12T23:44:20.356Z,42.42
2023-03-12T23:47:25.201Z,39.90
2023-03-12T23:50:28.506Z,38.08
2023-03-12T23:53:31.972Z,50.00
2023-03-12T23:56:36.941Z,37.92
2023-03-12T23:59:40.081Z,37.25
